Private Wetterstation Sandau
Wetterdaten: August 2012
Datum Temp. A. Feuchte A. Luftdruck Regen Wind Richtung Taupunkt Windchill
01.08.2012 22,1 C 56 % 1016,7 hPa 0,0 l/m 4,5 km/h (1 Bft) SO 12,6 C 22,1 C
02.08.2012 22,6 C 65 % 1013,0 hPa 1,6 l/m 5,1 km/h (1 Bft) O-SO 15,5 C 22,6 C
03.08.2012 21,0 C 68 % 1016,3 hPa 0,0 l/m 0,8 km/h (0 Bft) S 14,6 C 21,0 C
04.08.2012 21,4 C 64 % 1014,3 hPa 0,0 l/m 2,8 km/h (1 Bft) O-SO 14,2 C 21,4 C
05.08.2012 19,0 C 85 % 1011,1 hPa 2,6 l/m 2,1 km/h (1 Bft) O-NO 16,4 C 19,0 C
06.08.2012 20,2 C 71 % 1010,2 hPa 10,4 l/m 8,8 km/h (2 Bft) W-SW 14,5 C 20,2 C
07.08.2012 18,6 C 68 % 1018,3 hPa 0,0 l/m 18,8 km/h (3 Bft) W-SW 12,4 C 18,6 C
08.08.2012 17,7 C 72 % 1022,0 hPa 0,0 l/m 8,6 km/h (2 Bft) W 12,3 C 17,7 C
09.08.2012 17,0 C 70 % 1024,3 hPa 0,0 l/m 3,8 km/h (1 Bft) W-NW 11,3 C 17,0 C
10.08.2012 15,4 C 76 % 1024,7 hPa 0,0 l/m 4,8 km/h (1 Bft) W-NW 10,9 C 15,4 C
11.08.2012 18,0 C 61 % 1023,7 hPa 0,0 l/m 3,9 km/h (1 Bft) O-NO 10,1 C 18,0 C
12.08.2012 17,6 C 56 % 1020,5 hPa 0,0 l/m 4,5 km/h (1 Bft) O 8,2 C 17,6 C
13.08.2012 17,7 C 60 % 1019,0 hPa 0,0 l/m 4,8 km/h (1 Bft) O-NO 9,3 C 17,7 C
14.08.2012 18,8 C 60 % 1018,0 hPa 0,0 l/m 1,5 km/h (1 Bft) O-NO 10,4 C 18,8 C
15.08.2012 19,0 C 60 % 1016,4 hPa 0,0 l/m 3,3 km/h (1 Bft) O-SO 10,6 C 19,0 C
16.08.2012 16,8 C 85 % 1018,9 hPa 2,1 l/m 1,5 km/h (1 Bft) O-SO 14,2 C 16,8 C
17.08.2012 19,8 C 68 % 1022,1 hPa 0,5 l/m 0,8 km/h (0 Bft) SO 13,3 C 19,8 C
18.08.2012 23,0 C 57 % 1021,9 hPa 0,0 l/m 3,8 km/h (1 Bft) SO 13,2 C 23,0 C
19.08.2012 27,2 C 49 % 1017,5 hPa 0,0 l/m 4,6 km/h (1 Bft) SO 15,0 C 27,2 C
20.08.2012 25,8 C 61 % 1016,9 hPa 1,0 l/m 1,9 km/h (1 Bft) N-NO 17,7 C 25,8 C
21.08.2012 22,4 C 67 % 1016,8 hPa 1,0 l/m 2,0 km/h (1 Bft) O-NO 15,7 C 22,4 C
22.08.2012 20,5 C 65 % 1014,1 hPa 1,6 l/m 4,7 km/h (1 Bft) W 13,2 C 20,5 C
23.08.2012 19,5 C 58 % 1014,4 hPa 0,0 l/m 3,6 km/h (1 Bft) W-SW 10,6 C 19,5 C
24.08.2012 16,4 C 79 % 1008,1 hPa 0,5 l/m 1,7 km/h (1 Bft) O-NO 12,7 C 16,4 C
25.08.2012 19,9 C 71 % 1007,1 hPa 0,5 l/m 4,8 km/h (1 Bft) W-SW 14,1 C 19,9 C
26.08.2012 17,7 C 78 % 1009,6 hPa 1,0 l/m 14,4 km/h (3 Bft) W-SW 13,4 C 17,7 C
27.08.2012 16,6 C 64 % 1020,6 hPa 0,0 l/m 5,7 km/h (1 Bft) W-NW 9,3 C 16,6 C
28.08.2012 18,6 C 64 % 1017,4 hPa 0,0 l/m 2,2 km/h (1 Bft) O-SO 11,3 C 18,6 C
29.08.2012 21,0 C 63 % 1017,9 hPa 0,0 l/m 3,0 km/h (1 Bft) O-SO 13,1 C 21,0 C
30.08.2012 18,8 C 80 % 1015,6 hPa 3,6 l/m 2,3 km/h (1 Bft) O-SO 15,2 C 18,8 C
31.08.2012 16,4 C 80 % 1018,0 hPa 4,7 l/m 2,0 km/h (1 Bft) N-NO 12,7 C 16,4 C
Min-Datum 13.08.12 19.08.12 25.08.12 13 Tage 01.08.12 - 12.08.12 13.08.12
Min-Zeit 06:06 17:56 16:31 - 00:16 - 18:01 06:06
Minimum 10,4 C 30 % 1005,8 hPa - 0,0 km/h (0 Bft) - 7,3 C 10,4 C
Max-Datum 19.08.12 06.08.12 10.08.12 06.08.12 07.08.12 - 20.08.12 19.08.12
Max-Zeit 16:46 05:31 09:21 06:06 14:36 - 16:11 16:46
Maximum 36,8 C 94 % 1026,3 hPa 10,4 l/m 41,0 km/h
W-SW (6 Bft)
- 21,4 C 36,8 C
Durchschnitt 19,6 C 67 % 1016,9 hPa #31,1 l/m 4,4 km/h (1 Bft) W-SW 12,8 C 19,6 C

Durchschnitt Minimum Temp.14,0 C
Durchschnitt Maximum Temp.25,8 C
(c) by David Heller